createdAt,value
2019-06-01T00:02:00.477Z,100935.53
2019-06-01T00:04:31.192Z,100929.98
2019-06-01T00:07:01.432Z,100932.83
2019-06-01T00:09:32.740Z,100934.21
2019-06-01T00:12:02.961Z,100934.32
2019-06-01T00:14:33.615Z,100932.70
2019-06-01T00:17:06.598Z,100933.67
2019-06-01T00:19:37.582Z,100937.61
2019-06-01T00:22:07.985Z,100933.72
2019-06-01T00:24:38.472Z,100935.95
2019-06-01T00:27:08.971Z,100938.57
2019-06-01T00:29:40.642Z,100938.70
2019-06-01T00:32:11.396Z,100937.09
2019-06-01T00:34:41.864Z,100944.98
2019-06-01T00:37:12.153Z,100952.05
2019-06-01T00:39:43.701Z,100944.63
2019-06-01T00:42:14.479Z,100941.59
2019-06-01T00:44:44.782Z,100937.76
2019-06-01T00:47:15.024Z,100933.06
2019-06-01T00:49:45.263Z,100940.89
2019-06-01T00:52:15.502Z,100935.79
2019-06-01T00:54:45.727Z,100938.02
2019-06-01T00:57:15.975Z,100935.48
2019-06-01T00:59:46.192Z,100932.61
2019-06-01T01:02:16.471Z,100938.82
2019-06-01T01:04:48.307Z,100944.67
2019-06-01T01:07:19.050Z,100941.75
2019-06-01T01:09:50.665Z,100941.84
2019-06-01T01:12:21.310Z,100949.95
2019-06-01T01:14:51.531Z,100948.73
2019-06-01T01:17:21.784Z,100949.64
2019-06-01T01:19:52.038Z,100952.36
2019-06-01T01:22:22.266Z,100952.86
2019-06-01T01:24:54.533Z,100949.07
2019-06-01T01:27:25.121Z,100958.40
2019-06-01T01:29:55.368Z,100950.62
2019-06-01T01:32:25.607Z,100953.39
2019-06-01T01:34:55.828Z,100953.02
2019-06-01T01:37:26.077Z,100956.05
2019-06-01T01:39:56.352Z,100958.27
2019-06-01T01:42:26.521Z,100963.12
2019-06-01T01:44:56.770Z,100961.90
2019-06-01T01:47:28.421Z,100957.96
2019-06-01T01:49:58.717Z,100967.59
2019-06-01T01:52:28.961Z,100966.83
2019-06-01T01:54:59.186Z,100966.33
2019-06-01T01:57:29.795Z,100970.62
2019-06-01T02:00:01.725Z,100962.26
2019-06-01T02:02:34.446Z,100957.47
2019-06-01T02:05:10.093Z,100957.05
2019-06-01T02:07:40.446Z,100957.15
2019-06-01T02:10:13.104Z,100953.76
2019-06-01T02:12:43.698Z,100957.37
2019-06-01T02:15:14.461Z,100955.33
2019-06-01T02:17:44.764Z,100956.33
2019-06-01T02:20:15.053Z,100961.26
2019-06-01T02:22:45.804Z,100964.83
2019-06-01T02:25:16.289Z,100961.84
2019-06-01T02:27:46.489Z,100964.10
2019-06-01T02:30:17.588Z,100964.15
2019-06-01T02:32:49.259Z,100965.45
2019-06-01T02:35:19.922Z,100968.94
2019-06-01T02:37:50.332Z,100964.15
2019-06-01T02:40:21.664Z,100961.39
2019-06-01T02:42:52.370Z,100967.91
2019-06-01T02:45:25.279Z,100968.31
2019-06-01T02:47:59.544Z,100968.63
2019-06-01T02:50:30.045Z,100972.88
2019-06-01T02:53:01.635Z,100970.89
2019-06-01T02:55:32.230Z,100973.20
2019-06-01T02:58:04.272Z,100977.58
2019-06-01T03:00:48.171Z,100977.76
2019-06-01T03:03:19.047Z,100977.02
2019-06-01T03:05:51.004Z,100985.28
2019-06-01T03:08:23.265Z,100987.21
2019-06-01T03:10:55.785Z,100990.70
2019-06-01T03:13:28.550Z,100988.91
2019-06-01T03:16:03.442Z,100991.56
2019-06-01T03:18:39.813Z,100990.39
2019-06-01T03:21:12.800Z,100992.25
2019-06-01T03:23:47.010Z,100990.58
2019-06-01T03:26:20.129Z,101001.28
2019-06-01T03:28:53.009Z,101007.43
2019-06-01T03:31:23.372Z,101012.48
2019-06-01T03:33:53.670Z,101018.31
2019-06-01T03:36:23.917Z,101014.94
2019-06-01T03:38:54.386Z,101025.71
2019-06-01T03:41:24.646Z,101029.05
2019-06-01T03:43:54.845Z,101025.35
2019-06-01T03:46:25.087Z,101023.39
2019-06-01T03:48:55.357Z,101026.39
2019-06-01T03:51:25.637Z,101029.38
2019-06-01T03:53:55.995Z,101035.17
2019-06-01T03:56:26.387Z,101029.38
2019-06-01T03:58:56.626Z,101033.22
2019-06-01T04:01:26.896Z,101029.39
2019-06-01T04:03:57.630Z,101028.59
2019-06-01T04:06:27.966Z,101029.97
2019-06-01T04:08:58.227Z,101035.96
2019-06-01T04:11:28.482Z,101031.98
2019-06-01T04:13:58.717Z,101031.93
2019-06-01T04:16:28.960Z,101035.29
2019-06-01T04:18:59.180Z,101038.12
2019-06-01T04:21:29.434Z,101043.05
2019-06-01T04:24:00.073Z,101041.13
2019-06-01T04:26:30.436Z,101045.73
2019-06-01T04:29:02.177Z,101051.73
2019-06-01T04:31:33.032Z,101054.13
2019-06-01T04:34:04.531Z,101054.82
2019-06-01T04:36:34.891Z,101054.83
2019-06-01T04:39:07.690Z,101056.58
2019-06-01T04:41:38.286Z,101054.47
2019-06-01T04:44:09.924Z,101056.20
2019-06-01T04:46:40.307Z,101059.38
2019-06-01T04:49:10.901Z,101055.90
2019-06-01T04:51:41.202Z,101061.69
2019-06-01T04:54:14.461Z,101061.64
2019-06-01T04:56:43.958Z,101066.02
2019-06-01T04:59:15.319Z,101066.61
2019-06-01T05:01:46.046Z,101063.83
2019-06-01T05:04:16.679Z,101063.45
2019-06-01T05:06:47.267Z,101060.53
2019-06-01T05:09:18.041Z,101055.00
2019-06-01T05:11:49.226Z,101057.55
2019-06-01T05:14:19.531Z,101059.02
2019-06-01T05:16:49.773Z,101057.90
2019-06-01T05:19:20.364Z,101061.33
2019-06-01T05:21:50.588Z,101065.23
2019-06-01T05:24:20.847Z,101059.30
2019-06-01T05:26:51.521Z,101060.47
2019-06-01T05:29:21.948Z,101058.05
2019-06-01T05:31:52.542Z,101059.28
2019-06-01T05:34:22.839Z,101050.85
2019-06-01T05:36:53.103Z,101059.92
2019-06-01T05:39:23.676Z,101059.81
2019-06-01T05:41:55.521Z,101038.23
2019-06-01T05:44:26.906Z,101060.79
2019-06-01T05:46:57.505Z,101055.94
2019-06-01T05:49:28.428Z,101046.56
2019-06-01T05:51:59.104Z,101041.81
2019-06-01T05:54:29.396Z,101037.23
2019-06-01T05:56:59.629Z,101039.81
2019-06-01T05:59:30.186Z,101035.15
2019-06-01T06:02:00.857Z,101037.37
2019-06-01T06:04:31.524Z,101035.91
2019-06-01T06:07:01.840Z,101041.64
2019-06-01T06:09:32.057Z,101037.62
2019-06-01T06:12:02.902Z,100994.92
2019-06-01T06:14:33.526Z,101044.59
2019-06-01T06:17:04.260Z,101051.55
2019-06-01T06:19:34.916Z,101052.99
2019-06-01T06:22:05.219Z,101045.58
2019-06-01T06:24:35.437Z,101047.15
2019-06-01T06:27:05.772Z,101050.45
2019-06-01T06:29:35.967Z,101060.07
2019-06-01T06:32:09.244Z,101058.48
2019-06-01T06:34:39.123Z,101060.18
2019-06-01T06:37:09.680Z,101062.50
2019-06-01T06:39:39.911Z,101065.05
2019-06-01T06:42:10.498Z,101063.34
2019-06-01T06:44:41.174Z,101079.27
2019-06-01T06:47:11.994Z,101074.41
2019-06-01T06:49:42.296Z,101078.94
2019-06-01T06:52:12.542Z,101078.91
2019-06-01T06:54:42.760Z,101087.20
2019-06-01T06:57:13.009Z,101091.30
2019-06-01T06:59:43.247Z,101091.88
2019-06-01T07:02:16.721Z,101127.61
2019-06-01T07:04:47.847Z,101144.42
2019-06-01T07:07:19.511Z,101141.89
2019-06-01T07:09:50.615Z,101147.38
2019-06-01T07:12:21.303Z,101112.55
2019-06-01T07:14:52.111Z,101098.20
2019-06-01T07:17:23.521Z,101092.17
2019-06-01T07:19:54.052Z,101103.61
2019-06-01T07:22:24.313Z,101069.30
2019-06-01T07:24:54.941Z,101072.27
2019-06-01T07:27:26.139Z,101061.04
2019-06-01T07:29:56.896Z,101072.41
2019-06-01T07:32:28.606Z,101094.39
2019-06-01T07:35:01.241Z,101152.09
2019-06-01T07:37:32.728Z,101150.98
2019-06-01T07:40:07.328Z,101163.83
2019-06-01T07:42:37.579Z,101111.66
2019-06-01T07:45:08.453Z,101152.77
2019-06-01T07:47:38.707Z,101098.83
2019-06-01T07:50:09.787Z,101065.14
2019-06-01T07:52:40.398Z,101088.13
2019-06-01T07:55:14.414Z,101081.75
2019-06-01T07:57:44.283Z,101135.66
2019-06-01T08:13:16.297Z,101157.99
2019-06-01T08:15:46.914Z,101166.20
2019-06-01T08:18:17.640Z,101143.91
2019-06-01T08:20:47.988Z,101153.19
2019-06-01T08:23:18.630Z,101138.78
2019-06-01T08:25:48.943Z,101120.43
2019-06-01T08:28:19.235Z,101154.95
2019-06-01T08:30:49.475Z,101138.89
2019-06-01T08:33:20.181Z,101118.47
2019-06-01T08:35:50.610Z,101110.25
2019-06-01T08:38:20.878Z,101046.23
2019-06-01T08:40:54.346Z,101104.94
2019-06-01T08:43:25.513Z,101084.11
2019-06-01T08:45:57.092Z,101084.78
2019-06-01T08:48:27.718Z,101109.20
2019-06-01T08:50:58.133Z,101116.70
2019-06-01T08:53:29.976Z,101112.18
2019-06-01T08:56:01.062Z,101119.73
2019-06-01T08:58:32.491Z,101112.27
2019-06-01T09:01:03.174Z,101106.39
2019-06-01T09:03:36.565Z,101090.38
2019-06-01T09:06:06.422Z,101068.60
2019-06-01T09:08:37.203Z,101049.93
2019-06-01T09:11:07.474Z,101112.19
2019-06-01T09:13:37.789Z,101095.61
2019-06-01T09:16:09.943Z,101095.22
2019-06-01T09:18:40.558Z,101097.60
2019-06-01T09:21:11.133Z,101093.27
2019-06-01T09:23:41.792Z,101094.69
2019-06-01T09:26:12.683Z,101060.69
2019-06-01T09:28:42.987Z,101027.59
2019-06-01T09:31:13.687Z,101020.81
2019-06-01T09:33:44.365Z,101032.16
2019-06-01T09:36:15.054Z,101070.44
2019-06-01T09:38:45.485Z,101080.58
2019-06-01T09:41:16.127Z,101076.84
2019-06-01T09:43:46.503Z,101064.03
2019-06-01T09:46:17.269Z,101064.20
2019-06-01T09:48:50.556Z,101067.86
2019-06-01T09:51:21.301Z,101059.92
2019-06-01T09:53:51.689Z,101058.80
2019-06-01T10:09:09.719Z,101052.40
2019-06-01T10:11:39.988Z,101056.10
2019-06-01T10:14:10.633Z,100994.27
2019-06-01T10:16:43.019Z,101002.06
2019-06-01T10:19:13.667Z,101007.99
2019-06-01T10:21:44.006Z,101013.00
2019-06-01T10:24:14.733Z,100999.13
2019-06-01T10:26:45.038Z,100993.47
2019-06-01T10:29:15.738Z,101000.94
2019-06-01T10:31:46.427Z,101001.44
2019-06-01T10:34:17.172Z,100992.47
2019-06-01T10:36:47.820Z,100983.53
2019-06-01T10:39:19.716Z,100984.98
2019-06-01T10:41:50.246Z,100981.02
2019-06-01T10:44:20.534Z,100972.10
2019-06-01T10:46:52.254Z,100974.39
2019-06-01T10:49:22.851Z,100965.14
2019-06-01T10:51:53.441Z,100969.09
2019-06-01T10:54:23.734Z,100968.41
2019-06-01T10:56:54.315Z,100976.77
2019-06-01T10:59:24.886Z,100967.70
2019-06-01T11:01:55.113Z,100966.75
2019-06-01T11:04:27.098Z,100962.31
2019-06-01T11:06:57.735Z,100971.08
2019-06-01T11:09:28.619Z,100960.16
2019-06-01T11:11:59.431Z,100967.89
2019-06-01T11:14:30.279Z,100960.77
2019-06-01T11:17:01.133Z,100956.19
2019-06-01T11:19:31.474Z,100960.74
2019-06-01T11:22:02.077Z,100946.42
2019-06-01T11:24:33.270Z,100948.27
2019-06-01T11:27:04.269Z,100953.03
2019-06-01T11:29:41.144Z,100953.69
2019-06-01T11:32:07.387Z,100954.23
2019-06-01T11:34:38.460Z,100952.63
2019-06-01T11:37:09.258Z,100951.70
2019-06-01T11:39:40.561Z,100949.09
2019-06-01T11:42:12.048Z,100955.84
2019-06-01T11:44:42.817Z,100949.33
2019-06-01T11:47:14.711Z,100939.36
2019-06-01T11:49:45.186Z,100939.30
2019-06-01T11:52:15.414Z,100938.04
2019-06-01T11:54:45.757Z,100936.62
2019-06-01T11:57:15.987Z,100936.42
2019-06-01T11:59:47.684Z,100938.73
2019-06-01T12:02:17.973Z,100936.78
2019-06-01T12:04:48.258Z,100935.14
2019-06-01T12:07:18.661Z,100936.38
2019-06-01T12:09:49.138Z,100925.98
2019-06-01T12:12:19.754Z,100933.70
2019-06-01T12:14:51.503Z,100918.37
2019-06-01T12:17:21.814Z,100922.70
2019-06-01T12:19:52.430Z,100919.63
2019-06-01T12:22:23.140Z,100919.46
2019-06-01T12:24:53.527Z,100916.13
2019-06-01T12:27:23.748Z,100914.67
2019-06-01T12:29:54.072Z,100918.17
2019-06-01T12:32:24.281Z,100915.08
2019-06-01T12:34:56.096Z,100909.61
2019-06-01T12:37:45.638Z,100908.88
2019-06-01T12:39:58.866Z,100909.75
2019-06-01T12:42:29.254Z,100905.65
2019-06-01T12:44:59.471Z,100917.14
2019-06-01T12:47:30.063Z,100907.09
2019-06-01T12:50:00.704Z,100902.72
2019-06-01T12:52:31.645Z,100903.70
2019-06-01T12:55:01.880Z,100902.72
2019-06-01T12:57:32.121Z,100900.34
2019-06-01T13:00:02.358Z,100895.32
2019-06-01T13:02:33.947Z,100882.05
2019-06-01T13:05:09.092Z,100875.25
2019-06-01T13:07:54.151Z,100873.73
2019-06-01T13:10:11.307Z,100875.41
2019-06-01T13:12:41.502Z,100874.73
2019-06-01T13:15:14.427Z,100869.16
2019-06-01T13:17:47.305Z,100876.24
2019-06-01T13:20:18.452Z,100870.38
2019-06-01T13:22:51.742Z,100873.95
2019-06-01T13:25:23.478Z,100863.16
2019-06-01T13:27:53.699Z,100873.52
2019-06-01T13:30:23.936Z,100863.67
2019-06-01T13:32:54.167Z,100868.30
2019-06-01T13:35:24.425Z,100866.39
2019-06-01T13:38:10.904Z,100865.28
2019-06-01T13:40:27.320Z,100858.73
2019-06-01T13:42:57.931Z,100869.12
2019-06-01T13:45:28.591Z,100854.66
2019-06-01T13:47:58.889Z,100858.62
2019-06-01T13:50:29.115Z,100853.55
2019-06-01T13:52:59.356Z,100855.92
2019-06-01T13:55:29.578Z,100849.69
2019-06-01T13:58:01.340Z,100848.36
2019-06-01T14:00:31.602Z,100848.97
2019-06-01T14:03:01.949Z,100851.36
2019-06-01T14:05:32.338Z,100847.11
2019-06-01T14:08:02.627Z,100846.63
2019-06-01T14:10:32.813Z,100839.63
2019-06-01T14:13:05.419Z,100847.47
2019-06-01T14:15:35.017Z,100840.03
2019-06-01T14:18:05.850Z,100839.59
2019-06-01T14:20:36.405Z,100841.16
2019-06-01T14:23:07.497Z,100834.98
2019-06-01T14:25:37.790Z,100829.89
2019-06-01T14:28:08.022Z,100824.34
2019-06-01T14:30:38.272Z,100829.73
2019-06-01T14:33:08.488Z,100828.11
2019-06-01T14:35:38.723Z,100823.44
2019-06-01T14:38:08.974Z,100828.66
2019-06-01T14:40:41.447Z,100828.02
2019-06-01T14:43:11.213Z,100826.69
2019-06-01T14:45:41.502Z,100817.45
2019-06-01T14:48:12.220Z,100816.96
2019-06-01T14:50:44.171Z,100814.13
2019-06-01T14:53:14.792Z,100815.52
2019-06-01T14:55:45.533Z,100812.08
2019-06-01T14:58:17.349Z,100798.77
2019-06-01T15:00:50.147Z,100802.39
2019-06-01T15:03:20.482Z,100804.05
2019-06-01T15:05:50.778Z,100805.98
2019-06-01T15:08:20.999Z,100792.98
2019-06-01T15:10:53.271Z,100795.20
2019-06-01T15:13:23.646Z,100791.08
2019-06-01T15:15:53.974Z,100789.08
2019-06-01T15:18:24.417Z,100779.87
2019-06-01T15:20:55.883Z,100778.08
2019-06-01T15:23:26.772Z,100784.20
2019-06-01T15:25:58.519Z,100780.91
2019-06-01T15:28:28.881Z,100775.09
2019-06-01T15:30:59.517Z,100775.67
2019-06-01T15:33:29.867Z,100766.42
2019-06-01T15:36:01.760Z,100765.33
2019-06-01T15:38:32.266Z,100767.97
2019-06-01T15:41:02.552Z,100756.11
2019-06-01T15:43:33.084Z,100762.67
2019-06-01T15:46:03.404Z,100754.16
2019-06-01T15:48:33.630Z,100745.05
2019-06-01T15:51:07.134Z,100748.08
2019-06-01T15:53:36.203Z,100740.96
2019-06-01T15:56:06.501Z,100747.45
2019-06-01T15:58:51.781Z,100740.44
2019-06-01T16:01:08.772Z,100737.48
2019-06-01T16:03:38.984Z,100739.27
2019-06-01T16:06:09.218Z,100734.73
2019-06-01T16:08:41.061Z,100729.81
2019-06-01T16:11:11.324Z,100726.77
2019-06-01T16:13:41.732Z,100728.30
2019-06-01T16:16:12.051Z,100725.25
2019-06-01T16:18:42.259Z,100714.20
2019-06-01T16:21:13.836Z,100725.48
2019-06-01T16:23:49.927Z,100716.34
2019-06-01T16:26:16.875Z,100709.83
2019-06-01T16:28:47.175Z,100710.10
2019-06-01T16:31:17.432Z,100710.51
2019-06-01T16:33:47.662Z,100711.45
2019-06-01T16:36:18.225Z,100704.63
2019-06-01T16:38:48.869Z,100710.16
2019-06-01T16:41:19.408Z,100712.33
2019-06-01T16:43:51.180Z,100705.04
2019-06-01T16:46:23.564Z,100702.17
2019-06-01T16:48:53.866Z,100704.42
2019-06-01T16:51:24.119Z,100705.89
2019-06-01T16:53:55.671Z,100700.19
2019-06-01T16:56:26.434Z,100701.06
2019-06-01T16:58:58.080Z,100697.22
2019-06-01T17:01:28.588Z,100697.87
2019-06-01T17:04:02.659Z,100693.44
2019-06-01T17:06:33.208Z,100698.73
2019-06-01T17:09:05.252Z,100692.91
2019-06-01T17:11:36.095Z,100694.06
2019-06-01T17:14:08.376Z,100701.97
2019-06-01T17:16:39.024Z,100700.45
2019-06-01T17:19:09.949Z,100703.75
2019-06-01T17:21:40.376Z,100694.09
2019-06-01T17:24:11.226Z,100688.84
2019-06-01T17:26:41.897Z,100692.47
2019-06-01T17:29:12.583Z,100685.69
2019-06-01T17:31:53.841Z,100690.16
2019-06-01T17:34:14.892Z,100694.40
2019-06-01T17:36:45.146Z,100687.47
2019-06-01T17:39:15.359Z,100677.39
2019-06-01T17:41:46.113Z,100686.49
2019-06-01T17:44:16.773Z,100682.61
2019-06-01T17:46:53.307Z,100680.61
2019-06-01T17:49:19.545Z,100672.20
2019-06-01T17:51:49.787Z,100679.33
2019-06-01T17:54:22.583Z,100676.53
2019-06-01T17:56:52.891Z,100685.48
2019-06-01T17:59:23.237Z,100686.45
2019-06-01T18:01:53.520Z,100683.98
2019-06-01T18:04:23.836Z,100687.02
2019-06-01T18:06:54.072Z,100696.80
2019-06-01T18:09:24.325Z,100702.43
2019-06-01T18:11:54.725Z,100701.40
2019-06-01T18:14:25.432Z,100705.66
2019-06-01T18:16:57.294Z,100702.44
2019-06-01T18:19:27.526Z,100701.98
2019-06-01T18:21:57.775Z,100697.66
2019-06-01T18:24:28.439Z,100698.20
2019-06-01T18:26:58.830Z,100702.47
2019-06-01T18:29:32.269Z,100700.44
2019-06-01T18:32:03.032Z,100701.18
2019-06-01T18:34:34.807Z,100702.34
2019-06-01T18:37:05.773Z,100702.06
2019-06-01T18:39:36.486Z,100705.66
2019-06-01T18:42:06.806Z,100703.45
2019-06-01T18:44:37.459Z,100703.92
2019-06-01T18:47:07.897Z,100702.83
2019-06-01T18:49:39.659Z,100708.16
2019-06-01T18:52:10.649Z,100716.25
2019-06-01T18:54:41.619Z,100710.49
2019-06-01T18:57:20.490Z,100711.84
2019-06-01T18:59:45.019Z,100711.86
2019-06-01T19:02:16.319Z,100713.58
2019-06-01T19:04:46.900Z,100713.59
2019-06-01T19:07:18.477Z,100725.06
2019-06-01T19:09:49.857Z,100722.80
2019-06-01T19:12:20.093Z,100728.02
2019-06-01T19:14:50.889Z,100728.34
2019-06-01T19:17:21.541Z,100724.27
2019-06-01T19:19:51.858Z,100731.09
2019-06-01T19:22:22.080Z,100731.75
2019-06-01T19:24:52.385Z,100735.16
2019-06-01T19:27:22.672Z,100729.77
2019-06-01T19:29:52.994Z,100735.82
2019-06-01T19:32:23.575Z,100737.90
2019-06-01T19:34:54.324Z,100735.24
2019-06-01T19:37:25.527Z,100744.36
2019-06-01T19:39:56.995Z,100742.05
2019-06-01T19:42:27.360Z,100742.41
2019-06-01T19:44:58.069Z,100746.38
2019-06-01T19:47:28.374Z,100749.01
2019-06-01T19:49:58.968Z,100748.05
2019-06-01T19:52:30.014Z,100755.41
2019-06-01T19:55:00.337Z,100754.09
2019-06-01T19:57:30.585Z,100750.47
2019-06-01T20:00:00.811Z,100746.86
2019-06-01T20:02:34.071Z,100747.21
2019-06-01T20:05:03.934Z,100748.89
2019-06-01T20:07:34.256Z,100746.50
2019-06-01T20:10:06.692Z,100755.18
2019-06-01T20:12:36.992Z,100749.80
2019-06-01T20:15:08.467Z,100748.81
2019-06-01T20:17:38.800Z,100751.48
2019-06-01T20:20:10.638Z,100748.02
2019-06-01T20:22:41.530Z,100752.50
2019-06-01T20:25:13.262Z,100751.22
2019-06-01T20:27:43.539Z,100745.53
2019-06-01T20:30:15.771Z,100753.96
2019-06-01T20:32:46.261Z,100750.80
2019-06-01T20:35:18.033Z,100754.63
2019-06-01T20:37:49.005Z,100749.97
2019-06-01T20:40:20.355Z,100745.86
2019-06-01T20:42:51.142Z,100739.61
2019-06-01T20:45:22.782Z,100747.40
2019-06-01T20:47:53.424Z,100743.06
2019-06-01T20:50:24.060Z,100748.28
2019-06-01T20:52:54.399Z,100749.03
2019-06-01T20:55:24.845Z,100748.89
2019-06-01T20:57:55.100Z,100751.07
2019-06-01T21:00:25.325Z,100746.20
2019-06-01T21:05:24.600Z,100746.44
2019-06-01T21:07:57.392Z,100739.91
2019-06-01T21:10:27.219Z,100739.91
2019-06-01T21:12:57.872Z,100744.67
2019-06-01T21:15:28.172Z,100744.12
2019-06-01T21:17:58.792Z,100745.35
2019-06-01T21:20:30.093Z,100745.26
2019-06-01T21:23:00.870Z,100745.95
2019-06-01T21:25:31.218Z,100749.42
2019-06-01T21:28:01.824Z,100749.71
2019-06-01T21:30:32.146Z,100746.44
2019-06-01T21:33:02.379Z,100753.32
2019-06-01T21:35:32.620Z,100749.66
2019-06-01T21:38:04.133Z,100756.39
2019-06-01T21:40:34.719Z,100758.00
2019-06-01T21:43:23.140Z,100763.02
2019-06-01T21:45:36.949Z,100767.26
2019-06-01T21:48:07.570Z,100760.02
2019-06-01T21:50:37.868Z,100763.36
2019-06-01T21:53:08.126Z,100757.45
2019-06-01T21:55:38.330Z,100757.58
2019-06-01T21:58:08.625Z,100759.89
2019-06-01T22:00:39.202Z,100760.10
2019-06-01T22:03:11.208Z,100764.33
2019-06-01T22:05:41.433Z,100761.18
2019-06-01T22:08:11.688Z,100767.97
2019-06-01T22:10:42.281Z,100773.31
2019-06-01T22:13:18.626Z,100770.02
2019-06-01T22:15:44.542Z,100774.07
2019-06-01T22:18:14.821Z,100773.88
2019-06-01T22:20:45.072Z,100772.43
2019-06-01T22:23:15.329Z,100775.06
2019-06-01T22:25:45.608Z,100777.11
2019-06-01T22:28:15.829Z,100779.54
2019-06-01T22:30:46.119Z,100780.59
2019-06-01T22:33:16.412Z,100774.10
2019-06-01T22:35:46.680Z,100778.19
2019-06-01T22:38:16.940Z,100777.52
2019-06-01T22:40:47.604Z,100785.58
2019-06-01T22:43:32.899Z,100784.39
2019-06-01T22:45:50.445Z,100782.02
2019-06-01T22:48:20.667Z,100777.79
2019-06-01T22:50:50.978Z,100782.66
2019-06-01T22:53:22.003Z,100782.39
2019-06-01T22:55:52.981Z,100781.20
2019-06-01T22:58:23.660Z,100770.92
2019-06-01T23:00:53.976Z,100767.89
2019-06-01T23:03:24.240Z,100773.68
2019-06-01T23:05:54.453Z,100776.37
2019-06-01T23:08:25.691Z,100770.77
2019-06-01T23:10:55.975Z,100774.84
2019-06-01T23:13:26.287Z,100771.17
2019-06-01T23:15:56.464Z,100769.06
2019-06-01T23:18:27.962Z,100781.30
2019-06-01T23:20:58.788Z,100776.16
2019-06-01T23:23:30.155Z,100774.57
2019-06-01T23:26:01.020Z,100771.66
2019-06-01T23:28:32.444Z,100770.53
2019-06-01T23:31:03.692Z,100772.24
2019-06-01T23:33:34.010Z,100770.98
2019-06-01T23:36:04.591Z,100772.83
2019-06-01T23:38:34.931Z,100761.97
2019-06-01T23:41:05.410Z,100759.39
2019-06-01T23:43:35.637Z,100762.55
2019-06-01T23:46:05.855Z,100759.52
2019-06-01T23:48:36.114Z,100750.95
2019-06-01T23:51:06.335Z,100749.63
2019-06-01T23:53:36.623Z,100745.41
2019-06-01T23:56:06.853Z,100739.88
2019-06-01T23:58:37.176Z,100744.42
